Aérodrome :
LOGIN :

S'inscrire | Disclaimer

   EN    FR    IT 

 










Légende :    VFR   VFR Marginal   IFR   IFR Intensif   IFR Très Intensif
Visi : 
Plafond : 
>= 8 km
>= 3000ft
5 à 8 km
1000 à 3000 ft
1500m à 5 km
500 à 1000 ft
800 à 1500m
200 à 500 ft
< 800m
< 200 ft
Symboles :   Orages  Brouillard  Fortes neiges  Fortes précipitations  Vent > 20 kt
SIGMETs :   Divers  Orages  Givrage  Turbulence  Onde Orograph.  Cendres Volcan.







- Altitude de l'aérodrome : 3 ft
- Code IATA : LWR


EHLW - Leuuwarden Air Base

DERNIER METAR :
  • 222013Z AUTO 25005KT 3100 R23/0275D BR NCD 12/12 Q1022 YLO

METARs EXPIRÉS :
  • 222009Z AUTO 25005KT 4000 R23/0900D BR NCD 12/12 Q1022 GRN
  • 221955Z AUTO 25004KT 4000 BR BKN099 OVC100 13/13 Q1022 GRN
  • 221943Z AUTO 25004KT 3600 R23/P3000N BR OVC100 13/13 Q1022 YLO
  • 221930Z AUTO 26003KT 3300 R23/P3000N BR SCT050 OVC100 13/13 Q1022 YLO
  • 221926Z AUTO 26003KT 6000 BR SCT050 OVC100 13/13 Q1022 WHT
  • 221909Z AUTO 25003KT 9000 BR FEW015CB SCT017 OVC091 13/13 Q1021 WHT
  • 221855Z AUTO 26003KT 9000 BR SCT016 BKN019 BKN076 13/13 Q1021 WHT
  • 221839Z AUTO 28003KT 210V270 6000 BR FEW007 SCT052 OVC090 13/13 Q1021 WHT
  • 221833Z AUTO 28003KT 210V300 5000 BR BKN007 OVC052 13/13 Q1021 GRN
  • 221829Z AUTO 29003KT 9999 SCT007 BKN052 OVC095 13/13 Q1021 GRN
  • 221825Z AUTO 29002KT 9999 SCT037 BKN053 BKN095 13/13 Q1021 BLU
  • 221755Z AUTO 31002KT 9999 SCT036 BKN040 BKN046 14/14 Q1021 BLU
  • 221737Z AUTO 30002KT 9999 FEW024 BKN028 OVC031 14/14 Q1021 BLU
  • 221729Z AUTO 32001KT 9999 SCT021 BKN025 OVC028 14/14 Q1021 WHT

TAF TAF EHLW
Valide du 22 à 13h jusqu'au 23 à 01h UTC


221212Z 2213/2301 25004KT 9999 SCT017 BKN040
TEMPO 2213/2217 -RADZ SCT013 OVC030
PROB30
TEMPO 2213/2217 3000 RA SHRA BKN013 SCT017CB
BECMG 2216/2218 30005KT NSW SCT018
Pas de NOTAMs connus pour ce terrain.



MET'MAP, la Météo Aéronautique d'un coup d'oeil ! - Copyright ORBIFLY Décembre 2007 - Disclaimer

ORBIFLY MET'MAP TEAM :

Programmation & Développement : Alexandra Zaïnal
Conception & Développement : Baudouin d'Aumeries
Co-Programmation & Développement : Marc-Olivier Méhu
Soutien technique & logistique : Manuel Goepfert

Contact : metmap@orbifly.com




SOURCES & CREDITS :

   NOAA